Latest Weather Observations for Mount Gellibrand

IDV60801

Issued at 7:22 am EST Monday 28 September 2020 (issued every 10 minutes, with the page automatically refreshed every 10 minutes)

About weather observations | Map of weather stations | Latest weather observations for VIC | Other Formats
Station Details ID: 090035 Name: MOUNT GELLIBRAND Lat: -38.23 Lon: 143.79 Height: 261.0 m
Data from the previous 72 hours. | See also: Recent months at Mount Gellibrand
Date/Time
EST
Temp
°C
App
Temp
°C
Dew
Point
°C
Rel
Hum
%
Delta-T
°C
Wind Press
QNH
hPa
Press
MSL
hPa
Rain since
9am
mm
Dir  Spd
km/h
Gust
km/h
Spd
kts
Gust
kts
28/07:00am 3.5 0.8 3.5 100 0.0 S 7 7 4 4 1028.3 1028.5 0.0
28/06:30am 3.5 2.0 3.2 98 0.1 CALM 0 4 0 2 1027.7 1028.0 0.0
28/06:00am 5.3 3.9 3.5 88 0.8 CALM 0 0 0 0 1027.3 1027.6 0.0
28/05:30am 5.0 3.2 3.3 89 0.7 SSW 2 6 1 3 1027.2 1027.5 0.0
28/05:00am 4.9 3.2 3.9 93 0.4 SSW 2 2 1 1 1027.1 1027.4 0.0
28/04:30am 4.9 2.8 3.7 92 0.5 SSW 4 6 2 3 1027.0 1027.3 0.0
28/04:00am 4.9 2.3 3.4 90 0.6 SW 6 6 3 3 1026.9 1027.2 0.0
28/03:30am 5.2 3.0 3.5 89 0.7 W 4 4 2 2 1027.0 1027.3 0.0
28/03:00am 5.3 3.1 3.5 88 0.8 WNW 4 6 2 3 1027.2 1027.5 0.0
28/02:30am 4.8 2.2 3.3 90 0.6 WNW 6 6 3 3 1027.5 1027.8 0.0
28/02:00am 5.0 2.7 3.0 87 0.8 WNW 4 6 2 3 1027.6 1027.9 0.0
28/01:30am 5.9 3.2 2.7 80 1.3 WNW 6 6 3 3 1027.7 1028.0 0.0
28/01:00am 6.1 3.2 2.6 78 1.5 NW 7 7 4 4 1028.0 1028.2 0.0
28/12:30am 6.3 3.6 2.8 78 1.5 S 6 7 3 4 1028.0 1028.2 0.0
28/12:00am 5.7 4.2 2.9 82 1.2 CALM 0 0 0 0 1028.0 1028.2 0.0
 
Date/Time
EST
Temp
°C
App
Temp
°C
Dew
Point
°C
Rel
Hum
%
Delta-T
°C
Wind Press
QNH
hPa
Press
MSL
hPa
Rain since
9am
mm
Dir  Spd
km/h
Gust
km/h
Spd
kts
Gust
kts
27/11:30pm 5.8 4.3 3.0 82 1.2 CALM 0 0 0 0 1028.1 1028.3 0.0
27/11:00pm 6.0 3.7 3.0 81 1.3 S 4 4 2 2 1028.0 1028.2 0.0
27/10:30pm 6.3 4.0 2.9 79 1.4 S 4 6 2 3 1028.0 1028.2 0.0
27/10:00pm 6.2 3.6 3.0 80 1.3 S 6 6 3 3 1028.1 1028.3 0.0
27/09:30pm 5.8 2.2 3.0 82 1.2 SSE 11 13 6 7 1028.1 1028.3 0.0
27/09:00pm 6.1 2.5 3.1 81 1.3 S 11 15 6 8 1028.1 1028.3 0.0
27/08:30pm 6.5 1.7 4.7 88 0.8 S 19 20 10 11 1027.8 1028.1 0.0
27/08:00pm 6.6 2.3 5.2 91 0.6 SSE 17 17 9 9 1027.5 1027.8 0.0
27/07:30pm 7.2 3.7 5.3 88 0.9 SSE 13 15 7 8 1027.4 1027.7 0.0
27/07:00pm 7.8 4.4 6.1 89 0.8 SE 13 17 7 9 1027.3 1027.6 0.0
27/06:30pm 8.1 4.8 6.6 90 0.7 SE 13 17 7 9 1027.0 1027.3 0.0
27/06:00pm 8.7 5.5 6.8 88 0.9 ESE 13 15 7 8 1026.7 1027.0 0.0
27/05:30pm 9.2 6.3 6.6 84 1.2 ESE 11 13 6 7 1026.3 1026.5 0.0
27/05:00pm 9.6 5.5 6.3 80 1.5 ESE 17 20 9 11 1026.1 1026.3 0.0
27/04:30pm 11.6 9.6 4.6 62 3.2 ENE 4 4 2 2 1025.8 1026.0 0.0
27/04:00pm 11.3 9.8 5.0 65 2.9 S 2 6 1 3 1025.5 1025.7 0.0
27/03:30pm 11.2 8.4 5.1 66 2.8 WSW 9 15 5 8 1025.5 1025.7 0.0
27/03:00pm 12.5 11.3 6.3 66 3.0 SSW 2 6 1 3 1025.5 1025.7 0.0
27/02:30pm 12.1 10.3 7.0 71 2.5 SSW 6 11 3 6 1025.6 1025.8 0.0
27/02:00pm 10.4 6.2 5.8 73 2.1 SSW 17 22 9 12 1025.6 1025.8 0.0
27/01:30pm 11.2 9.2 6.1 71 2.4 SW 6 7 3 4 1025.8 1026.0 0.0
27/01:00pm 10.0 7.3 5.6 74 2.0 S 9 15 5 8 1026.0 1026.2 0.0
27/12:30pm 10.3 7.6 5.5 72 2.2 SW 9 17 5 9 1026.2 1026.4 0.0
27/12:00pm 10.7 8.4 5.0 68 2.6 S 6 11 3 6 1026.3 1026.5 0.0
27/11:30am 9.6 6.9 5.6 76 1.9 S 9 15 5 8 1026.3 1026.5 0.0
27/11:00am 10.3 7.4 6.5 77 1.8 SSE 11 17 6 9 1026.2 1026.4 0.0
27/10:30am 9.4 5.7 4.4 71 2.2 S 13 17 7 9 1026.1 1026.3 0.0
27/10:00am 9.9 5.1 4.9 71 2.3 S 19 22 10 12 1026.0 1026.2 0.0
27/09:30am 9.4 5.3 4.6 72 2.2 S 15 20 8 11 1025.9 1026.1 0.0
27/09:00am 8.8 5.6 6.9 88 0.9 S 13 19 7 10 1025.7 1025.9 1.0
27/08:30am 8.0 5.6 6.9 93 0.5 SW 9 13 5 7 1025.3 1025.5 1.0
27/08:00am 7.4 4.7 7.4 100 0.0 SW 11 13 6 7 1024.9 1025.1 1.0
27/07:30am 6.3 3.4 6.3 100 0.0 SW 11 15 6 8 1024.4 1024.6 1.0
27/07:00am 5.0 1.0 5.0 100 0.0 SSW 15 19 8 10 1023.7 1024.0 1.0
27/06:30am 5.5 2.0 5.5 100 0.0 SW 13 17 7 9 1023.0 1023.2 1.0
27/06:00am 5.7 2.3 5.7 100 0.0 SW 13 15 7 8 1022.4 1022.6 1.0
27/05:30am 5.7 1.9 5.7 100 0.0 SW 15 17 8 9 1022.1 1022.3 1.0
27/05:00am 6.2 2.1 6.2 100 0.0 SW 17 20 9 11 1021.7 1021.9 1.0
27/04:30am 6.4 2.7 6.4 100 0.0 SW 15 17 8 9 1021.2 1021.4 1.0
27/04:00am 6.3 3.0 6.3 100 0.0 SW 13 15 7 8 1020.7 1020.9 1.0
27/03:30am 6.5 2.8 6.5 100 0.0 SW 15 17 8 9 1020.4 1020.6 1.0
27/03:00am 6.6 3.0 6.6 100 0.0 SW 15 20 8 11 1020.1 1020.3 1.0
27/02:30am 6.7 3.1 6.7 100 0.0 SW 15 19 8 10 1019.7 1019.9 1.0
27/02:00am 6.7 2.7 6.7 100 0.0 SW 17 20 9 11 1019.6 1019.8 1.0
27/01:30am 6.4 2.0 6.4 100 0.0 WSW 19 24 10 13 1019.3 1019.5 1.0
27/01:00am 6.7 1.0 6.7 100 0.0 WSW 26 32 14 17 1019.2 1019.4 1.0
27/12:30am 6.8 1.1 6.8 100 0.0 WSW 26 30 14 16 1018.9 1019.1 1.0
27/12:00am 7.2 2.4 7.2 100 0.0 W 22 32 12 17 1018.7 1018.9 1.0
 
Date/Time
EST
Temp
°C
App
Temp
°C
Dew
Point
°C
Rel
Hum
%
Delta-T
°C
Wind Press
QNH
hPa
Press
MSL
hPa
Rain since
9am
mm
Dir  Spd
km/h
Gust
km/h
Spd
kts
Gust
kts
26/11:30pm 7.2 2.0 7.2 100 0.0 W 24 30 13 16 1018.6 1018.8 0.8
26/11:00pm 7.3 1.7 7.3 100 0.0 W 26 39 14 21 1018.4 1018.6 0.8
26/10:30pm 7.2 1.6 7.2 100 0.0 W 26 35 14 19 1018.4 1018.6 0.6
26/10:00pm 7.2 1.6 7.2 100 0.0 W 26 32 14 17 1018.5 1018.7 0.6
26/09:30pm 7.0 1.4 7.0 100 0.0 W 26 33 14 18 1018.3 1018.5 0.6
26/09:00pm 7.0 0.6 7.0 100 0.0 W 30 35 16 19 1017.9 1018.1 0.6
26/08:30pm 7.2 0.9 7.2 100 0.0 W 30 43 16 23 1017.7 1017.9 0.4
26/08:00pm 7.0 0.6 7.0 100 0.0 W 30 39 16 21 1017.3 1017.5 0.4
26/07:30pm 7.2 1.2 7.2 100 0.0 WSW 28 39 15 21 1017.2 1017.4 0.2
26/07:00pm 7.9 1.7 7.9 100 0.0 WSW 30 35 16 19 1016.8 1017.0 0.2
26/06:30pm 7.6 2.9 7.6 100 0.0 W 22 30 12 16 1016.4 1016.5 0.2
26/06:00pm 8.1 1.0 8.1 100 0.0 WSW 35 43 19 23 1015.9 1016.0 0.2
26/05:30pm 8.3 1.8 8.3 100 0.0 W 32 43 17 23 1015.3 1015.5 0.2
26/05:00pm 8.5 1.1 8.5 100 0.0 WSW 37 46 20 25 1015.0 1015.2 0.2
26/04:30pm 9.6 2.0 9.0 96 0.3 WSW 39 54 21 29 1014.4 1014.6 0.0
26/04:00pm 9.0 0.4 8.9 99 0.0 WSW 44 56 24 30 1014.3 1014.5 0.0
26/03:40pm 9.8 0.8 7.2 84 1.2 WSW 44 69 24 37 1013.9 1014.1 0.0
26/03:30pm 10.1 1.4 7.9 86 1.1 WSW 43 54 23 29 1014.0 1014.2 0.0
26/03:08pm 10.0 1.7 7.9 87 1.0 WSW 41 59 22 32 1014.0 1014.2 0.0
26/03:00pm 10.6 2.2 8.9 89 0.9 WSW 43 59 23 32 1014.1 1014.3 0.0
26/02:30pm 8.9 1.5 8.5 97 0.2 WSW 37 57 20 31 1014.1 1014.3 0.0
26/02:24pm 8.5 -1.2 7.7 95 0.4 WSW 48 69 26 37 1014.0 1014.2 0.0
26/02:00pm 10.5 1.9 6.3 75 2.0 WSW 41 59 22 32 1013.8 1014.0 0.0
26/01:58pm 10.9 3.4 7.8 81 1.5 WSW 37 59 20 32 1013.8 1014.0 0.0
26/01:30pm 10.1 1.9 8.2 88 0.9 WSW 41 57 22 31 1014.0 1014.2 0.0
26/01:02pm 9.6 1.7 7.7 88 0.9 WSW 39 57 21 31 1014.1 1014.3 0.0
26/01:00pm 9.9 2.4 7.8 87 1.0 WSW 37 46 20 25 1014.3 1014.5 0.0
26/12:36pm 10.6 3.0 8.9 89 0.9 WSW 39 57 21 31 1014.0 1014.2 0.0
26/12:30pm 10.2 3.1 8.1 87 1.0 W 35 50 19 27 1014.1 1014.3 0.0
26/12:15pm 9.6 3.0 8.5 93 0.5 W 33 52 18 28 1014.3 1014.5 0.0
26/12:00pm 10.1 2.3 6.8 80 1.6 WSW 37 48 20 26 1014.2 1014.4 0.0
26/11:30am 9.7 3.4 8.8 94 0.4 WSW 32 43 17 23 1014.4 1014.6 0.0
26/11:00am 8.0 1.2 6.8 92 0.6 SW 32 50 17 27 1014.2 1014.4 0.0
26/10:59am 8.3 2.2 6.8 90 0.7 SW 28 46 15 25 1014.3 1014.5 0.0
26/10:30am 8.6 1.2 8.2 97 0.2 SW 37 52 20 28 1014.2 1014.4 0.0
26/10:18am 9.1 3.1 6.9 86 1.0 WSW 28 54 15 29 1013.8 1014.0 0.0
26/10:00am 8.7 3.8 8.4 98 0.1 SW 24 33 13 18 1014.2 1014.4 0.0
26/09:30am 8.2 3.6 8.2 100 0.0 SW 22 32 12 17 1014.0 1014.2 0.0
26/09:00am 7.2 0.7 6.5 95 0.3 WSW 30 46 16 25 1013.6 1013.8 10.8
26/08:30am 7.4 1.7 6.5 94 0.4 WSW 26 35 14 19 1013.1 1013.2 10.8
26/08:00am 6.9 2.4 6.9 100 0.0 SW 20 28 11 15 1012.6 1012.7 10.8
26/07:30am 6.2 0.8 6.2 100 0.0 WSW 24 32 13 17 1012.2 1012.3 10.8
26/07:00am 5.0 -0.3 5.0 100 0.0 WSW 22 26 12 14 1011.6 1011.8 10.8
26/06:30am 5.5 -0.5 5.5 100 0.0 SW 26 35 14 19 1010.8 1011.0 10.8
26/06:00am 5.2 -1.2 5.2 100 0.0 SW 28 35 15 19 1010.4 1010.6 10.8
26/05:30am 5.9 -2.1 5.9 100 0.0 SW 37 57 20 31 1009.6 1009.7 10.8
26/05:19am 6.1 -1.4 6.1 100 0.0 SW 35 56 19 30 1009.2 1009.3 10.8
26/05:00am 5.9 -2.8 5.9 100 0.0 SW 41 52 22 28 1008.7 1008.8 10.8
26/04:30am 6.4 -1.8 6.4 100 0.0 SW 39 48 21 26 1008.2 1008.3 10.8
26/04:00am 6.5 -0.4 6.5 100 0.0 SW 32 41 17 22 1008.0 1008.1 10.8
26/03:30am 6.6 0.5 6.6 100 0.0 SW 28 37 15 20 1007.4 1007.6 10.8
26/03:00am 6.3 -1.2 6.3 100 0.0 WSW 35 44 19 24 1007.0 1007.2 10.0
26/02:30am 6.1 -1.1 6.1 100 0.0 WSW 33 44 18 24 1006.7 1006.8 9.4
26/02:00am 6.0 -0.2 6.0 100 0.0 WSW 28 39 15 21 1006.7 1006.8 9.0
26/01:30am 5.6 0.0 5.6 100 0.0 W 24 33 13 18 1006.4 1006.5 8.8
26/01:00am 5.0 -1.4 5.0 100 0.0 W 28 35 15 19 1006.1 1006.2 8.8
26/12:30am 4.2 -3.3 4.2 100 0.0 WNW 33 39 18 21 1006.1 1006.2 8.4
26/12:00am 3.7 -3.4 3.7 100 0.0 WNW 30 39 16 21 1006.0 1006.1 8.4
 
Date/Time
EST
Temp
°C
App
Temp
°C
Dew
Point
°C
Rel
Hum
%
Delta-T
°C
Wind Press
QNH
hPa
Press
MSL
hPa
Rain since
9am
mm
Dir  Spd
km/h
Gust
km/h
Spd
kts
Gust
kts
25/11:30pm 3.7 -4.3 3.7 100 0.0 WNW 35 44 19 24 1005.8 1005.9 8.4
25/11:00pm 3.8 -3.6 3.8 100 0.0 WNW 32 37 17 20 1005.9 1006.0 8.4
25/10:30pm 4.2 -3.3 4.2 100 0.0 WNW 33 39 18 21 1005.9 1006.0 8.4
25/10:00pm 4.2 -2.4 4.2 100 0.0 WNW 28 39 15 21 1005.8 1005.9 8.4
25/09:30pm 4.1 -2.9 4.1 100 0.0 WNW 30 35 16 19 1005.8 1005.9 8.4
25/09:00pm 4.3 -2.3 4.3 100 0.0 W 28 35 15 19 1005.9 1006.0 8.4
25/08:31pm 5.0 -2.4 4.0 93 0.4 W 32 50 17 27 1005.6 1005.7 8.4
25/08:30pm 4.9 -2.1 3.9 93 0.4 W 30 41 16 22 1005.7 1005.8 8.4
25/08:00pm 5.1 -0.4 3.9 92 0.5 W 22 30 12 16 1005.3 1005.4 8.4
25/07:30pm 5.1 -1.8 4.4 95 0.3 WSW 30 35 16 19 1004.9 1005.0 8.4
25/07:00pm 5.7 -1.4 5.7 100 0.0 WSW 32 37 17 20 1004.6 1004.7 8.4
25/06:30pm 6.0 -2.0 5.7 98 0.1 SW 37 46 20 25 1004.2 1004.3 8.4
25/06:14pm 6.8 -1.7 5.1 89 0.8 WSW 39 54 21 29 1003.6 1003.7 8.4
25/06:00pm 6.9 0.6 5.5 91 0.6 WSW 28 35 15 19 1003.7 1003.8 8.4
25/05:30pm 7.6 0.8 4.9 83 1.2 WSW 30 37 16 20 1003.2 1003.3 8.4
25/05:00pm 7.6 -0.3 4.2 79 1.5 SW 35 48 19 26 1002.7 1002.8 8.4
25/04:30pm 7.4 0.3 6.3 93 0.5 SW 33 44 18 24 1002.2 1002.3 8.4
25/04:00pm 7.2 -3.3 5.7 90 0.7 SW 50 69 27 37 1001.7 1001.8 8.2
25/03:56pm 8.6 -0.5 6.7 88 0.9 SW 44 65 24 35 1001.4 1001.5 8.2
25/03:30pm 7.9 -0.2 7.1 95 0.4 SW 39 52 21 28 1001.7 1001.8 8.2
25/03:10pm 9.2 1.6 9.2 100 0.0 SW 39 50 21 27 1001.5 1001.6 8.2
25/03:00pm 8.3 3.4 8.3 100 0.0 WSW 24 37 13 20 1001.8 1001.9 8.2
25/02:30pm 8.0 3.0 8.0 100 0.0 SW 24 32 13 17 1001.7 1001.8 8.2
25/02:00pm 6.2 -1.7 6.2 100 0.0 SW 37 48 20 26 1001.5 1001.6 8.2
25/01:49pm 6.1 -0.5 6.1 100 0.0 SW 30 48 16 26 1001.3 1001.4 8.2
25/01:48pm 6.1 -0.1 6.1 100 0.0 SW 28 44 15 24 1001.4 1001.5 8.2
25/01:30pm 5.0 0.1 5.0 100 0.0 W 20 26 11 14 1001.6 1001.7 8.2
25/01:00pm 3.9 -1.6 3.9 100 0.0 W 22 26 12 14 1002.0 1002.1 7.6
25/12:30pm 3.2 -2.4 3.2 100 0.0 W 22 30 12 16 1002.2 1002.3 6.8
25/12:00pm 3.0 -1.7 3.0 100 0.0 WSW 17 20 9 11 1002.1 1002.2 5.6
25/11:30am 2.9 -3.6 2.9 100 0.0 WSW 26 32 14 17 1001.7 1001.8 3.0
25/11:00am 4.6 -1.5 4.6 100 0.0 WSW 26 32 14 17 1001.6 1001.7 0.0
25/10:30am 5.1 -2.1 5.1 100 0.0 WSW 32 39 17 21 1001.3 1001.4 0.0
25/10:00am 5.5 -1.6 5.5 100 0.0 W 32 39 17 21 1000.9 1001.0 0.0
25/09:30am 6.0 -0.2 6.0 100 0.0 NW 28 32 15 17 1001.1 1001.2 0.0
25/09:00am 6.0 0.9 6.0 100 0.0 WNW 22 28 12 15 1001.2 1001.3 6.0
25/08:30am 5.3 -0.7 5.3 100 0.0 WNW 26 33 14 18 1001.0 1001.1 6.0
25/08:00am 5.2 0.3 5.2 100 0.0 WNW 20 24 11 13 1000.9 1001.0 6.0
25/07:30am 4.7 -1.4 4.7 100 0.0 WNW 26 30 14 16 1000.8 1000.9 6.0

Other formats

Comma delimited format used in spreadsheet applications
http://www.bom.gov.au/fwo/IDV60801/IDV60801.95845.axf

JavaScript Object Notation format (JSON) in row-major order
http://www.bom.gov.au/fwo/IDV60801/IDV60801.95845.json

Data quality

Most of these data are generated automatically and are frequently updated. Quality checks on data are not normally performed. It is possible for incorrect values to appear. Refer to information at About Latest Weather Observations and please check the disclaimer before using these data.